sensor_id;sensor_type;location;lat;lon;timestamp;pressure;altitude;pressure_sealevel;temperature;humidity
36380;BME280;22411;53.016;18.632;2023-11-22T00:01:37;101524.91;;;-3.23;100.00
36380;BME280;22411;53.016;18.632;2023-11-22T00:04:03;101523.22;;;-3.22;100.00
36380;BME280;22411;53.016;18.632;2023-11-22T00:06:29;101529.13;;;-3.26;100.00
36380;BME280;22411;53.016;18.632;2023-11-22T00:08:55;101518.13;;;-3.22;100.00
36380;BME280;22411;53.016;18.632;2023-11-22T00:11:21;101529.97;;;-3.24;100.00
36380;BME280;22411;53.016;18.632;2023-11-22T00:13:46;101530.81;;;-3.28;100.00
36380;BME280;22411;53.016;18.632;2023-11-22T00:16:14;101525.72;;;-3.28;100.00
36380;BME280;22411;53.016;18.632;2023-11-22T00:18:41;101528.28;;;-3.27;100.00
36380;BME280;22411;53.016;18.632;2023-11-22T00:21:07;101522.34;;;-3.30;100.00
36380;BME280;22411;53.016;18.632;2023-11-22T00:23:33;101526.53;;;-3.32;100.00
36380;BME280;22411;53.016;18.632;2023-11-22T00:25:59;101518.94;;;-3.34;100.00
36380;BME280;22411;53.016;18.632;2023-11-22T00:28:24;101517.25;;;-3.35;100.00
36380;BME280;22411;53.016;18.632;2023-11-22T00:30:50;101522.28;;;-3.38;100.00
36380;BME280;22411;53.016;18.632;2023-11-22T00:33:16;101517.22;;;-3.41;100.00
36380;BME280;22411;53.016;18.632;2023-11-22T00:35:43;101513.00;;;-3.37;100.00
36380;BME280;22411;53.016;18.632;2023-11-22T00:38:09;101520.59;;;-3.40;100.00
36380;BME280;22411;53.016;18.632;2023-11-22T00:40:35;101523.13;;;-3.37;100.00
36380;BME280;22411;53.016;18.632;2023-11-22T00:43:00;101524.84;;;-3.36;100.00
36380;BME280;22411;53.016;18.632;2023-11-22T00:45:26;101527.41;;;-3.36;100.00
36380;BME280;22411;53.016;18.632;2023-11-22T00:47:52;101525.66;;;-3.37;100.00
36380;BME280;22411;53.016;18.632;2023-11-22T00:50:18;101530.75;;;-3.37;100.00
36380;BME280;22411;53.016;18.632;2023-11-22T00:52:47;101528.25;;;-3.36;100.00
36380;BME280;22411;53.016;18.632;2023-11-22T00:55:12;101541.75;;;-3.37;100.00
36380;BME280;22411;53.016;18.632;2023-11-22T00:57:39;101547.69;;;-3.33;100.00
36380;BME280;22411;53.016;18.632;2023-11-22T01:00:07;101550.19;;;-3.38;100.00
36380;BME280;22411;53.016;18.632;2023-11-22T01:02:36;101547.66;;;-3.39;100.00
36380;BME280;22411;53.016;18.632;2023-11-22T01:05:06;101540.88;;;-3.42;100.00
36380;BME280;22411;53.016;18.632;2023-11-22T01:07:36;101548.44;;;-3.50;100.00
36380;BME280;22411;53.016;18.632;2023-11-22T01:10:02;101558.56;;;-3.50;100.00
36380;BME280;22411;53.016;18.632;2023-11-22T01:12:28;101550.13;;;-3.53;100.00
36380;BME280;22411;53.016;18.632;2023-11-22T01:14:54;101552.63;;;-3.55;100.00
36380;BME280;22411;53.016;18.632;2023-11-22T01:17:19;101553.47;;;-3.57;100.00
36380;BME280;22411;53.016;18.632;2023-11-22T01:19:45;101549.22;;;-3.60;100.00
36380;BME280;22411;53.016;18.632;2023-11-22T01:22:11;101550.06;;;-3.59;100.00
36380;BME280;22411;53.016;18.632;2023-11-22T01:24:36;101539.06;;;-3.61;100.00
36380;BME280;22411;53.016;18.632;2023-11-22T01:27:03;101542.41;;;-3.65;100.00
36380;BME280;22411;53.016;18.632;2023-11-22T01:29:29;101549.19;;;-3.67;100.00
36380;BME280;22411;53.016;18.632;2023-11-22T01:31:55;101554.25;;;-3.69;100.00
36380;BME280;22411;53.016;18.632;2023-11-22T01:34:21;101549.13;;;-3.71;100.00
36380;BME280;22411;53.016;18.632;2023-11-22T01:36:49;101543.22;;;-3.70;100.00
36380;BME280;22411;53.016;18.632;2023-11-22T01:39:15;101549.09;;;-3.75;100.00
36380;BME280;22411;53.016;18.632;2023-11-22T01:41:44;101555.00;;;-3.76;100.00
36380;BME280;22411;53.016;18.632;2023-11-22T01:44:10;101556.72;;;-3.78;100.00
36380;BME280;22411;53.016;18.632;2023-11-22T01:46:37;101561.72;;;-3.83;100.00
36380;BME280;22411;53.016;18.632;2023-11-22T01:49:03;101567.66;;;-3.84;100.00
36380;BME280;22411;53.016;18.632;2023-11-22T01:51:29;101572.69;;;-3.85;100.00
36380;BME280;22411;53.016;18.632;2023-11-22T01:53:56;101581.13;;;-3.86;100.00
36380;BME280;22411;53.016;18.632;2023-11-22T01:56:24;101576.91;;;-3.87;100.00
36380;BME280;22411;53.016;18.632;2023-11-22T01:58:53;101581.97;;;-3.87;100.00
36380;BME280;22411;53.016;18.632;2023-11-22T02:01:20;101578.59;;;-3.89;100.00
36380;BME280;22411;53.016;18.632;2023-11-22T02:03:46;101575.19;;;-3.90;100.00
36380;BME280;22411;53.016;18.632;2023-11-22T02:06:18;101587.88;;;-3.88;100.00
36380;BME280;22411;53.016;18.632;2023-11-22T02:08:44;101594.59;;;-3.90;100.00
36380;BME280;22411;53.016;18.632;2023-11-22T02:11:09;101600.50;;;-3.91;100.00
36380;BME280;22411;53.016;18.632;2023-11-22T02:13:35;101603.03;;;-3.93;100.00
36380;BME280;22411;53.016;18.632;2023-11-22T02:16:02;101597.13;;;-3.95;100.00
36380;BME280;22411;53.016;18.632;2023-11-22T02:18:29;101600.47;;;-3.96;100.00
36380;BME280;22411;53.016;18.632;2023-11-22T02:20:56;101608.03;;;-3.99;100.00
36380;BME280;22411;53.016;18.632;2023-11-22T02:23:22;101612.28;;;-3.98;100.00
36380;BME280;22411;53.016;18.632;2023-11-22T02:25:47;101619.00;;;-4.00;100.00
36380;BME280;22411;53.016;18.632;2023-11-22T02:28:13;101618.13;;;-4.02;100.00
36380;BME280;22411;53.016;18.632;2023-11-22T02:30:39;101628.31;;;-4.01;100.00
36380;BME280;22411;53.016;18.632;2023-11-22T02:33:05;101630.78;;;-4.02;100.00
36380;BME280;22411;53.016;18.632;2023-11-22T02:35:32;101635.00;;;-4.04;100.00
36380;BME280;22411;53.016;18.632;2023-11-22T02:37:58;101643.47;;;-4.02;100.00
36380;BME280;22411;53.016;18.632;2023-11-22T02:40:24;101652.75;;;-4.01;100.00
36380;BME280;22411;53.016;18.632;2023-11-22T02:42:52;101641.78;;;-4.02;100.00
36380;BME280;22411;53.016;18.632;2023-11-22T02:45:26;101641.75;;;-4.05;100.00
36380;BME280;22411;53.016;18.632;2023-11-22T02:47:52;101634.97;;;-4.10;100.00
36380;BME280;22411;53.016;18.632;2023-11-22T02:50:18;101641.75;;;-4.05;100.00
36380;BME280;22411;53.016;18.632;2023-11-22T02:52:44;101652.69;;;-4.09;100.00
36380;BME280;22411;53.016;18.632;2023-11-22T02:55:09;101646.78;;;-4.09;100.00
36380;BME280;22411;53.016;18.632;2023-11-22T02:57:36;101645.06;;;-4.12;100.00
36380;BME280;22411;53.016;18.632;2023-11-22T03:00:03;101661.09;;;-4.11;100.00
36380;BME280;22411;53.016;18.632;2023-11-22T03:02:30;101649.28;;;-4.12;100.00
36380;BME280;22411;53.016;18.632;2023-11-22T03:04:57;101667.00;;;-4.14;100.00
36380;BME280;22411;53.016;18.632;2023-11-22T03:07:26;101661.88;;;-4.17;100.00
36380;BME280;22411;53.016;18.632;2023-11-22T03:09:53;101656.81;;;-4.17;100.00
36380;BME280;22411;53.016;18.632;2023-11-22T03:12:19;101666.97;;;-4.15;100.00
36380;BME280;22411;53.016;18.632;2023-11-22T03:14:49;101669.47;;;-4.18;100.00
36380;BME280;22411;53.016;18.632;2023-11-22T03:17:15;101677.84;;;-4.23;100.00
36380;BME280;22411;53.016;18.632;2023-11-22T03:19:41;101671.09;;;-4.25;100.00
36380;BME280;22411;53.016;18.632;2023-11-22T03:22:07;101674.47;;;-4.26;100.00
36380;BME280;22411;53.016;18.632;2023-11-22T03:24:33;101690.50;;;-4.24;100.00
36380;BME280;22411;53.016;18.632;2023-11-22T03:27:02;101685.44;;;-4.24;100.00
36380;BME280;22411;53.016;18.632;2023-11-22T03:29:29;101692.19;;;-4.26;100.00
36380;BME280;22411;53.016;18.632;2023-11-22T03:31:55;101696.34;;;-4.30;100.00
36380;BME280;22411;53.016;18.632;2023-11-22T03:34:21;101708.16;;;-4.29;100.00
36380;BME280;22411;53.016;18.632;2023-11-22T03:36:47;101704.84;;;-4.23;100.00
36380;BME280;22411;53.016;18.632;2023-11-22T03:39:12;101698.97;;;-4.22;100.00
36380;BME280;22411;53.016;18.632;2023-11-22T03:41:41;101695.56;;;-4.26;100.00
36380;BME280;22411;53.016;18.632;2023-11-22T03:44:07;101692.19;;;-4.25;100.00
36380;BME280;22411;53.016;18.632;2023-11-22T03:46:37;101699.00;;;-4.21;100.00
36380;BME280;22411;53.016;18.632;2023-11-22T03:49:04;101695.63;;;-4.21;100.00
36380;BME280;22411;53.016;18.632;2023-11-22T03:51:33;101694.72;;;-4.23;100.00
36380;BME280;22411;53.016;18.632;2023-11-22T03:53:58;101690.56;;;-4.19;100.00
36380;BME280;22411;53.016;18.632;2023-11-22T03:56:25;101688.03;;;-4.21;100.00
36380;BME280;22411;53.016;18.632;2023-11-22T03:58:51;101684.59;;;-4.23;100.00
36380;BME280;22411;53.016;18.632;2023-11-22T04:01:17;101691.34;;;-4.27;100.00
36380;BME280;22411;53.016;18.632;2023-11-22T04:03:44;101689.66;;;-4.25;100.00
36380;BME280;22411;53.016;18.632;2023-11-22T04:06:10;101701.47;;;-4.27;100.00
36380;BME280;22411;53.016;18.632;2023-11-22T04:08:35;101690.44;;;-4.32;100.00
36380;BME280;22411;53.016;18.632;2023-11-22T04:11:03;101693.81;;;-4.30;100.00
36380;BME280;22411;53.016;18.632;2023-11-22T04:13:30;101706.47;;;-4.31;100.00
36380;BME280;22411;53.016;18.632;2023-11-22T04:15:56;101714.00;;;-4.37;100.00
36380;BME280;22411;53.016;18.632;2023-11-22T04:18:22;101707.25;;;-4.35;100.00
36380;BME280;22411;53.016;18.632;2023-11-22T04:20:48;101714.84;;;-4.37;100.00
36380;BME280;22411;53.016;18.632;2023-11-22T04:23:14;101703.91;;;-4.33;100.00
36380;BME280;22411;53.016;18.632;2023-11-22T04:25:41;101703.88;;;-4.34;100.00
36380;BME280;22411;53.016;18.632;2023-11-22T04:28:07;101711.44;;;-4.39;100.00
36380;BME280;22411;53.016;18.632;2023-11-22T04:30:35;101708.88;;;-4.40;100.00
36380;BME280;22411;53.016;18.632;2023-11-22T04:33:01;101704.59;;;-4.46;100.00
36380;BME280;22411;53.016;18.632;2023-11-22T04:35:27;101708.75;;;-4.50;100.00
36380;BME280;22411;53.016;18.632;2023-11-22T04:37:53;101718.03;;;-4.50;100.00
36380;BME280;22411;53.016;18.632;2023-11-22T04:40:21;101728.22;;;-4.47;100.00
36380;BME280;22411;53.016;18.632;2023-11-22T04:42:46;101734.97;;;-4.48;100.00
36380;BME280;22411;53.016;18.632;2023-11-22T04:45:14;101744.19;;;-4.53;100.00
36380;BME280;22411;53.016;18.632;2023-11-22T04:47:39;101751.75;;;-4.53;100.00
36380;BME280;22411;53.016;18.632;2023-11-22T04:50:06;101753.34;;;-4.59;100.00
36380;BME280;22411;53.016;18.632;2023-11-22T04:52:32;101755.00;;;-4.63;100.00
36380;BME280;22411;53.016;18.632;2023-11-22T04:54:58;101746.59;;;-4.59;100.00
36380;BME280;22411;53.016;18.632;2023-11-22T04:57:24;101751.66;;;-4.60;100.00
36380;BME280;22411;53.016;18.632;2023-11-22T04:59:49;101748.25;;;-4.61;100.00
36380;BME280;22411;53.016;18.632;2023-11-22T05:02:15;101757.53;;;-4.63;100.00
36380;BME280;22411;53.016;18.632;2023-11-22T05:04:41;101759.22;;;-4.60;100.00
36380;BME280;22411;53.016;18.632;2023-11-22T05:07:08;101750.78;;;-4.61;100.00
36380;BME280;22411;53.016;18.632;2023-11-22T05:09:34;101762.63;;;-4.60;100.00
36380;BME280;22411;53.016;18.632;2023-11-22T05:12:00;101771.91;;;-4.59;100.00
36380;BME280;22411;53.016;18.632;2023-11-22T05:14:26;101767.69;;;-4.60;100.00
36380;BME280;22411;53.016;18.632;2023-11-22T05:16:52;101771.94;;;-4.57;100.00
36380;BME280;22411;53.016;18.632;2023-11-22T05:19:18;101776.16;;;-4.58;100.00
36380;BME280;22411;53.016;18.632;2023-11-22T05:21:44;101780.38;;;-4.58;100.00
36380;BME280;22411;53.016;18.632;2023-11-22T05:24:10;101782.91;;;-4.58;100.00
36380;BME280;22411;53.016;18.632;2023-11-22T05:26:35;101785.47;;;-4.55;100.00
36380;BME280;22411;53.016;18.632;2023-11-22T05:29:01;101783.72;;;-4.59;100.00
36380;BME280;22411;53.016;18.632;2023-11-22T05:31:30;101784.56;;;-4.59;100.00
36380;BME280;22411;53.016;18.632;2023-11-22T05:33:55;101798.94;;;-4.58;100.00
36380;BME280;22411;53.016;18.632;2023-11-22T05:36:21;101794.66;;;-4.60;100.00
36380;BME280;22411;53.016;18.632;2023-11-22T05:38:47;101809.84;;;-4.60;100.00
36380;BME280;22411;53.016;18.632;2023-11-22T05:41:13;101823.41;;;-4.55;100.00
36380;BME280;22411;53.016;18.632;2023-11-22T05:43:38;101816.75;;;-4.49;100.00
36380;BME280;22411;53.016;18.632;2023-11-22T05:46:04;101813.44;;;-4.46;100.00
36380;BME280;22411;53.016;18.632;2023-11-22T05:48:30;101822.78;;;-4.40;100.00
36380;BME280;22411;53.016;18.632;2023-11-22T05:50:56;101826.94;;;-4.44;100.00
36380;BME280;22411;53.016;18.632;2023-11-22T05:53:22;101832.97;;;-4.37;100.00
36380;BME280;22411;53.016;18.632;2023-11-22T05:55:48;101838.91;;;-4.35;100.00
36380;BME280;22411;53.016;18.632;2023-11-22T05:58:15;101833.88;;;-4.32;100.00
36380;BME280;22411;53.016;18.632;2023-11-22T06:00:46;101832.25;;;-4.27;100.00
36380;BME280;22411;53.016;18.632;2023-11-22T06:03:13;101834.00;;;-4.23;100.00
36380;BME280;22411;53.016;18.632;2023-11-22T06:05:39;101834.88;;;-4.21;100.00
36380;BME280;22411;53.016;18.632;2023-11-22T06:08:06;101832.38;;;-4.18;100.00
36380;BME280;22411;53.016;18.632;2023-11-22T06:10:32;101815.47;;;-4.19;100.00
36380;BME280;22411;53.016;18.632;2023-11-22T06:12:58;101829.84;;;-4.18;100.00
36380;BME280;22411;53.016;18.632;2023-11-22T06:15:23;101829.88;;;-4.15;100.00
36380;BME280;22411;53.016;18.632;2023-11-22T06:17:49;101843.41;;;-4.11;100.00
36380;BME280;22411;53.016;18.632;2023-11-22T06:20:15;101847.69;;;-4.09;100.00
36380;BME280;22411;53.016;18.632;2023-11-22T06:22:41;101836.78;;;-4.05;100.00
36380;BME280;22411;53.016;18.632;2023-11-22T06:25:11;101849.50;;;-4.00;100.00
36380;BME280;22411;53.016;18.632;2023-11-22T06:27:38;101846.16;;;-3.98;100.00
36380;BME280;22411;53.016;18.632;2023-11-22T06:30:05;101866.47;;;-3.93;100.00
36380;BME280;22411;53.016;18.632;2023-11-22T06:32:32;101857.25;;;-3.89;100.00
36380;BME280;22411;53.016;18.632;2023-11-22T06:34:59;101853.94;;;-3.82;100.00
36380;BME280;22411;53.016;18.632;2023-11-22T06:37:25;101866.66;;;-3.78;100.00
36380;BME280;22411;53.016;18.632;2023-11-22T06:39:51;101871.78;;;-3.73;100.00
36380;BME280;22411;53.016;18.632;2023-11-22T06:42:18;101865.88;;;-3.72;100.00
36380;BME280;22411;53.016;18.632;2023-11-22T06:44:45;101870.97;;;-3.72;100.00
36380;BME280;22411;53.016;18.632;2023-11-22T06:47:13;101886.22;;;-3.67;100.00
36380;BME280;22411;53.016;18.632;2023-11-22T06:49:39;101914.97;;;-3.64;100.00
36380;BME280;22411;53.016;18.632;2023-11-22T06:52:05;101906.63;;;-3.55;100.00
36380;BME280;22411;53.016;18.632;2023-11-22T06:54:31;101899.94;;;-3.52;100.00
36380;BME280;22411;53.016;18.632;2023-11-22T06:56:57;101883.09;;;-3.44;100.00
36380;BME280;22411;53.016;18.632;2023-11-22T06:59:22;101884.00;;;-3.38;100.00
36380;BME280;22411;53.016;18.632;2023-11-22T07:01:48;101905.19;;;-3.35;100.00
36380;BME280;22411;53.016;18.632;2023-11-22T07:04:14;101895.09;;;-3.30;100.00
36380;BME280;22411;53.016;18.632;2023-11-22T07:06:40;101895.94;;;-3.28;100.00
36380;BME280;22411;53.016;18.632;2023-11-22T07:09:08;101900.22;;;-3.24;100.00
36380;BME280;22411;53.016;18.632;2023-11-22T07:11:37;101916.34;;;-3.21;100.00
36380;BME280;22411;53.016;18.632;2023-11-22T07:14:03;101916.44;;;-3.08;100.00
36380;BME280;22411;53.016;18.632;2023-11-22T07:16:30;101907.25;;;-3.00;100.00
36380;BME280;22411;53.016;18.632;2023-11-22T07:18:56;101923.31;;;-3.00;100.00
36380;BME280;22411;53.016;18.632;2023-11-22T07:21:22;101920.00;;;-2.93;100.00
36380;BME280;22411;53.016;18.632;2023-11-22T07:23:48;101917.50;;;-2.88;100.00
36380;BME280;22411;53.016;18.632;2023-11-22T07:26:14;101945.47;;;-2.83;100.00
36380;BME280;22411;53.016;18.632;2023-11-22T07:28:41;101931.19;;;-2.74;100.00
36380;BME280;22411;53.016;18.632;2023-11-22T07:31:08;101954.13;;;-2.63;100.00
36380;BME280;22411;53.016;18.632;2023-11-22T07:33:35;101959.25;;;-2.55;100.00
36380;BME280;22411;53.016;18.632;2023-11-22T07:36:01;101966.09;;;-2.44;100.00
36380;BME280;22411;53.016;18.632;2023-11-22T07:38:28;101959.41;;;-2.34;100.00
36380;BME280;22411;53.016;18.632;2023-11-22T07:40:55;101962.03;;;-2.26;100.00
36380;BME280;22411;53.016;18.632;2023-11-22T07:43:21;101946.00;;;-2.21;100.00
36380;BME280;22411;53.016;18.632;2023-11-22T07:45:47;101939.25;;;-2.14;100.00
36380;BME280;22411;53.016;18.632;2023-11-22T07:48:14;101954.53;;;-2.08;100.00
36380;BME280;22411;53.016;18.632;2023-11-22T07:50:41;101963.03;;;-2.03;100.00
36380;BME280;22411;53.016;18.632;2023-11-22T07:53:12;101942.72;;;-2.03;100.00
36380;BME280;22411;53.016;18.632;2023-11-22T07:55:39;101954.63;;;-1.94;100.00
36380;BME280;22411;53.016;18.632;2023-11-22T07:58:04;101951.28;;;-1.86;100.00
36380;BME280;22411;53.016;18.632;2023-11-22T08:00:33;101961.50;;;-1.76;100.00
36380;BME280;22411;53.016;18.632;2023-11-22T08:03:02;101958.13;;;-1.71;100.00
36380;BME280;22411;53.016;18.632;2023-11-22T08:05:31;101964.94;;;-1.65;100.00
36380;BME280;22411;53.016;18.632;2023-11-22T08:08:05;101971.72;;;-1.67;100.00
36380;BME280;22411;53.016;18.632;2023-11-22T08:10:35;101973.34;;;-1.80;100.00
36380;BME280;22411;53.016;18.632;2023-11-22T08:13:00;101968.19;;;-1.91;100.00
36380;BME280;22411;53.016;18.632;2023-11-22T08:15:28;101971.53;;;-1.96;100.00
36380;BME280;22411;53.016;18.632;2023-11-22T08:17:54;101971.50;;;-2.02;100.00
36380;BME280;22411;53.016;18.632;2023-11-22T08:20:20;101991.84;;;-2.02;100.00
36380;BME280;22411;53.016;18.632;2023-11-22T08:22:46;101979.16;;;-1.98;100.00
36380;BME280;22411;53.016;18.632;2023-11-22T08:25:12;101975.81;;;-1.91;100.00
36380;BME280;22411;53.016;18.632;2023-11-22T08:27:39;101973.34;;;-1.85;100.00
36380;BME280;22411;53.016;18.632;2023-11-22T08:30:08;101965.78;;;-1.69;100.00
36380;BME280;22411;53.016;18.632;2023-11-22T08:32:45;101960.75;;;-1.57;100.00
36380;BME280;22411;53.016;18.632;2023-11-22T08:35:16;101948.91;;;-1.50;100.00
36380;BME280;22411;53.016;18.632;2023-11-22T08:37:43;101942.13;;;-1.50;100.00
36380;BME280;22411;53.016;18.632;2023-11-22T08:40:10;101938.78;;;-1.38;100.00
36380;BME280;22411;53.016;18.632;2023-11-22T08:42:46;101929.50;;;-1.27;100.00
36380;BME280;22411;53.016;18.632;2023-11-22T08:45:12;101935.50;;;-1.10;100.00
36380;BME280;22411;53.016;18.632;2023-11-22T08:47:39;101944.03;;;-0.71;100.00
36380;BME280;22411;53.016;18.632;2023-11-22T08:50:10;101940.53;;;0.28;100.00
36380;BME280;22411;53.016;18.632;2023-11-22T08:52:38;101941.47;;;1.64;100.00
36380;BME280;22411;53.016;18.632;2023-11-22T08:55:08;101949.25;;;3.02;100.00
36380;BME280;22411;53.016;18.632;2023-11-22T08:57:37;101961.38;;;4.44;100.00
36380;BME280;22411;53.016;18.632;2023-11-22T09:00:04;101957.59;;;5.39;100.00
36380;BME280;22411;53.016;18.632;2023-11-22T09:02:32;101958.03;;;6.84;94.77
36380;BME280;22411;53.016;18.632;2023-11-22T09:04:58;101966.38;;;7.73;75.21
36380;BME280;22411;53.016;18.632;2023-11-22T09:07:24;101962.66;;;7.01;67.16
36380;BME280;22411;53.016;18.632;2023-11-22T09:09:50;101971.22;;;6.44;74.00
36380;BME280;22411;53.016;18.632;2023-11-22T09:12:19;101969.78;;;6.01;76.55
36380;BME280;22411;53.016;18.632;2023-11-22T09:14:46;101973.09;;;6.39;65.33
36380;BME280;22411;53.016;18.632;2023-11-22T09:17:12;101975.75;;;7.23;57.98
36380;BME280;22411;53.016;18.632;2023-11-22T09:19:39;101975.81;;;7.99;52.91
36380;BME280;22411;53.016;18.632;2023-11-22T09:22:05;101977.91;;;8.40;50.25
36380;BME280;22411;53.016;18.632;2023-11-22T09:24:34;101972.66;;;7.40;53.65
36380;BME280;22411;53.016;18.632;2023-11-22T09:27:03;101964.69;;;6.62;59.58
36380;BME280;22411;53.016;18.632;2023-11-22T09:29:31;101961.25;;;5.65;63.27
36380;BME280;22411;53.016;18.632;2023-11-22T09:31:59;101960.50;;;4.45;80.18
36380;BME280;22411;53.016;18.632;2023-11-22T09:34:27;101963.81;;;4.05;86.50
36380;BME280;22411;53.016;18.632;2023-11-22T09:36:53;101964.28;;;3.81;87.70
36380;BME280;22411;53.016;18.632;2023-11-22T09:39:19;101969.50;;;3.75;89.93
36380;BME280;22411;53.016;18.632;2023-11-22T09:41:47;101974.34;;;4.36;82.25
36380;BME280;22411;53.016;18.632;2023-11-22T09:44:14;101974.00;;;5.34;70.97
36380;BME280;22411;53.016;18.632;2023-11-22T09:46:42;101977.44;;;5.68;61.32
36380;BME280;22411;53.016;18.632;2023-11-22T09:49:10;101966.03;;;5.44;60.22
36380;BME280;22411;53.016;18.632;2023-11-22T09:51:42;101956.88;;;4.95;62.21
36380;BME280;22411;53.016;18.632;2023-11-22T09:54:09;101955.88;;;4.62;68.85
36380;BME280;22411;53.016;18.632;2023-11-22T09:56:40;101957.78;;;4.53;66.42
36380;BME280;22411;53.016;18.632;2023-11-22T09:59:07;101959.16;;;4.26;69.79
36380;BME280;22411;53.016;18.632;2023-11-22T10:01:34;101951.38;;;3.31;74.26
36380;BME280;22411;53.016;18.632;2023-11-22T10:04:03;101958.13;;;3.38;70.04
36380;BME280;22411;53.016;18.632;2023-11-22T10:06:33;101954.00;;;3.27;78.89
36380;BME280;22411;53.016;18.632;2023-11-22T10:09:02;101949.91;;;3.17;84.24
36380;BME280;22411;53.016;18.632;2023-11-22T10:11:34;101944.13;;;3.02;86.20
36380;BME280;22411;53.016;18.632;2023-11-22T10:14:02;101951.69;;;3.11;81.20
36380;BME280;22411;53.016;18.632;2023-11-22T10:16:27;101946.81;;;4.44;71.35
36380;BME280;22411;53.016;18.632;2023-11-22T10:18:53;101954.22;;;6.96;52.89
36380;BME280;22411;53.016;18.632;2023-11-22T10:21:22;101960.66;;;8.15;46.24
36380;BME280;22411;53.016;18.632;2023-11-22T10:23:50;101961.81;;;10.65;40.96
36380;BME280;22411;53.016;18.632;2023-11-22T10:26:18;101961.81;;;10.65;39.48
36380;BME280;22411;53.016;18.632;2023-11-22T10:28:44;101970.25;;;9.69;40.32
36380;BME280;22411;53.016;18.632;2023-11-22T10:31:10;101970.28;;;9.48;41.59
36380;BME280;22411;53.016;18.632;2023-11-22T10:33:42;101963.16;;;7.40;46.35
36380;BME280;22411;53.016;18.632;2023-11-22T10:36:08;101958.22;;;8.10;45.40
36380;BME280;22411;53.016;18.632;2023-11-22T10:38:34;101963.50;;;7.82;43.66
36380;BME280;22411;53.016;18.632;2023-11-22T10:41:05;101960.47;;;6.89;46.67
36380;BME280;22411;53.016;18.632;2023-11-22T10:43:31;101959.03;;;7.08;46.92
36380;BME280;22411;53.016;18.632;2023-11-22T10:46:02;101961.16;;;8.25;42.34
36380;BME280;22411;53.016;18.632;2023-11-22T10:48:28;101966.66;;;8.87;41.68
36380;BME280;22411;53.016;18.632;2023-11-22T10:50:57;101970.38;;;8.32;42.58
36380;BME280;22411;53.016;18.632;2023-11-22T10:53:37;101965.28;;;8.54;42.39
36380;BME280;22411;53.016;18.632;2023-11-22T10:56:15;101953.03;;;7.87;44.45
36380;BME280;22411;53.016;18.632;2023-11-22T10:58:49;101951.63;;;9.61;42.27
36380;BME280;22411;53.016;18.632;2023-11-22T11:01:24;101948.97;;;10.24;38.91
36380;BME280;22411;53.016;18.632;2023-11-22T11:04:09;101948.28;;;9.37;40.39
36380;BME280;22411;53.016;18.632;2023-11-22T11:06:36;101930.88;;;7.80;44.05
36380;BME280;22411;53.016;18.632;2023-11-22T11:09:06;101936.53;;;7.66;49.27
36380;BME280;22411;53.016;18.632;2023-11-22T11:11:35;101938.91;;;7.46;45.85
36380;BME280;22411;53.016;18.632;2023-11-22T11:14:03;101933.50;;;6.12;53.51
36380;BME280;22411;53.016;18.632;2023-11-22T11:16:32;101924.72;;;6.78;52.08
36380;BME280;22411;53.016;18.632;2023-11-22T11:19:00;101931.13;;;6.93;50.19
36380;BME280;22411;53.016;18.632;2023-11-22T11:21:27;101940.69;;;6.89;52.01
36380;BME280;22411;53.016;18.632;2023-11-22T11:23:53;101932.00;;;6.34;55.60
36380;BME280;22411;53.016;18.632;2023-11-22T11:26:20;101923.97;;;6.14;56.64
36380;BME280;22411;53.016;18.632;2023-11-22T11:28:51;101919.31;;;5.95;58.94
36380;BME280;22411;53.016;18.632;2023-11-22T11:31:20;101917.44;;;5.68;57.16
36380;BME280;22411;53.016;18.632;2023-11-22T11:36:29;101927.47;;;4.68;68.60
36380;BME280;22411;53.016;18.632;2023-11-22T11:39:02;101937.50;;;4.81;60.97
36380;BME280;22411;53.016;18.632;2023-11-22T11:41:32;101935.22;;;4.67;64.48
36380;BME280;22411;53.016;18.632;2023-11-22T11:44:01;101943.56;;;5.15;63.42
36380;BME280;22411;53.016;18.632;2023-11-22T11:46:28;101935.88;;;5.51;63.71
36380;BME280;22411;53.016;18.632;2023-11-22T11:48:55;101928.94;;;5.53;55.79
36380;BME280;22411;53.016;18.632;2023-11-22T11:51:22;101931.78;;;5.42;54.63
36380;BME280;22411;53.016;18.632;2023-11-22T11:53:48;101928.59;;;4.97;57.16
36380;BME280;22411;53.016;18.632;2023-11-22T11:56:15;101938.38;;;5.18;58.33
36380;BME280;22411;53.016;18.632;2023-11-22T11:58:42;101930.34;;;6.00;54.79
36380;BME280;22411;53.016;18.632;2023-11-22T12:01:09;101920.03;;;6.00;53.34
36380;BME280;22411;53.016;18.632;2023-11-22T12:03:38;101915.00;;;6.28;53.51
36380;BME280;22411;53.016;18.632;2023-11-22T12:06:06;101907.38;;;6.53;53.63
36380;BME280;22411;53.016;18.632;2023-11-22T12:08:33;101912.50;;;6.25;54.51
36380;BME280;22411;53.016;18.632;2023-11-22T12:11:05;101920.81;;;6.04;55.98
36380;BME280;22411;53.016;18.632;2023-11-22T12:13:37;101908.41;;;5.86;55.67
36380;BME280;22411;53.016;18.632;2023-11-22T12:16:06;101912.41;;;5.97;56.10
36380;BME280;22411;53.016;18.632;2023-11-22T12:18:47;101892.88;;;5.89;59.18
36380;BME280;22411;53.016;18.632;2023-11-22T12:21:13;101887.75;;;6.20;57.19
36380;BME280;22411;53.016;18.632;2023-11-22T12:23:41;101886.06;;;6.48;57.36
36380;BME280;22411;53.016;18.632;2023-11-22T12:26:15;101881.31;;;6.05;55.83
36380;BME280;22411;53.016;18.632;2023-11-22T12:28:42;101884.13;;;5.63;59.65
36380;BME280;22411;53.016;18.632;2023-11-22T12:31:12;101878.94;;;5.65;56.40
36380;BME280;22411;53.016;18.632;2023-11-22T12:33:39;101880.41;;;5.73;57.62
36380;BME280;22411;53.016;18.632;2023-11-22T12:36:05;101886.78;;;5.60;54.81
36380;BME280;22411;53.016;18.632;2023-11-22T12:38:34;101888.25;;;5.69;54.06